createdAt,value
2024-02-19T00:00:36.615Z,23.7
2024-02-19T00:05:54.881Z,23.7
2024-02-19T00:11:13.302Z,23.7
2024-02-19T00:16:31.483Z,23.7
2024-02-19T00:21:50.090Z,23.8
2024-02-19T00:27:08.624Z,23.8
2024-02-19T00:32:27.238Z,23.8
2024-02-19T00:37:45.524Z,23.8
2024-02-19T00:43:03.662Z,23.8
2024-02-19T00:48:21.896Z,23.8
2024-02-19T00:53:40.659Z,23.8
2024-02-19T00:58:59.285Z,23.8
2024-02-19T01:04:17.566Z,23.8
2024-02-19T01:09:36.421Z,23.8
2024-02-19T01:14:54.810Z,23.8
2024-02-19T01:20:13.341Z,23.8
2024-02-19T01:25:31.682Z,23.8
2024-02-19T01:30:50.085Z,23.9
2024-02-19T01:36:08.269Z,23.8
2024-02-19T01:41:26.613Z,23.9
2024-02-19T01:46:44.622Z,23.9
2024-02-19T01:52:03.153Z,23.8
2024-02-19T01:57:21.436Z,23.8
2024-02-19T02:02:39.677Z,23.8
2024-02-19T02:07:58.088Z,23.8
2024-02-19T02:13:16.100Z,23.9
2024-02-19T02:18:34.616Z,23.9
2024-02-19T02:23:52.847Z,23.9
2024-02-19T02:29:11.408Z,23.9
2024-02-19T02:34:30.167Z,23.9
2024-02-19T02:39:48.405Z,23.9
2024-02-19T02:45:06.740Z,23.9
2024-02-19T02:50:24.692Z,23.9
2024-02-19T02:55:42.860Z,23.9
2024-02-19T03:01:01.148Z,23.9
2024-02-19T03:06:24.947Z,23.9
2024-02-19T03:11:43.088Z,23.9
2024-02-19T03:17:01.248Z,23.9
2024-02-19T03:22:19.752Z,23.9
2024-02-19T03:27:38.643Z,23.9
2024-02-19T03:32:57.105Z,23.9
2024-02-19T03:38:15.393Z,23.9
2024-02-19T03:43:33.549Z,23.9
2024-02-19T03:48:52.188Z,23.9
2024-02-19T03:54:14.395Z,23.9
2024-02-19T03:59:32.792Z,23.9
2024-02-19T04:04:51.007Z,23.9
2024-02-19T04:10:09.256Z,23.9
2024-02-19T04:15:27.881Z,23.9
2024-02-19T04:20:46.401Z,23.9
2024-02-19T04:26:04.726Z,23.9
2024-02-19T04:31:23.057Z,23.9
2024-02-19T04:36:25.960Z,23.9
2024-02-19T04:41:44.277Z,23.9
2024-02-19T04:47:02.623Z,23.9
2024-02-19T04:52:20.918Z,23.9
2024-02-19T04:57:39.169Z,23.9
2024-02-19T05:02:57.422Z,23.9
2024-02-19T05:08:15.565Z,23.9
2024-02-19T05:13:33.875Z,23.9
2024-02-19T05:18:52.567Z,23.8
2024-02-19T05:24:11.050Z,23.8
2024-02-19T05:29:29.558Z,23.8
2024-02-19T05:34:48.193Z,23.8
2024-02-19T05:40:06.702Z,23.9
2024-02-19T05:45:25.086Z,23.9
2024-02-19T05:50:43.052Z,23.9
2024-02-19T05:56:01.348Z,23.9
2024-02-19T06:01:20.026Z,23.8
2024-02-19T06:06:38.429Z,23.8
2024-02-19T06:11:57.077Z,23.8
2024-02-19T06:17:15.374Z,23.8
2024-02-19T06:22:33.729Z,23.8
2024-02-19T06:27:36.313Z,23.8
2024-02-19T06:32:54.497Z,23.7
2024-02-19T06:38:12.843Z,23.7
2024-02-19T06:43:31.113Z,23.7
2024-02-19T06:48:51.122Z,23.7
2024-02-19T06:54:09.714Z,23.7
2024-02-19T06:59:28.100Z,23.7
2024-02-19T07:04:46.754Z,23.7
2024-02-19T07:10:05.890Z,23.7
2024-02-19T07:15:24.264Z,23.7
2024-02-19T07:20:42.305Z,23.7
2024-02-19T07:26:00.564Z,23.7
2024-02-19T07:31:19.382Z,23.6
2024-02-19T07:36:37.748Z,23.6
2024-02-19T07:41:56.236Z,23.6
2024-02-19T07:47:14.428Z,23.6
2024-02-19T07:52:32.901Z,23.6
2024-02-19T07:57:51.285Z,23.6
2024-02-19T08:03:09.652Z,23.6
2024-02-19T08:08:28.141Z,23.6
2024-02-19T08:13:46.677Z,23.6
2024-02-19T08:19:05.559Z,23.6
2024-02-19T08:24:23.827Z,23.6
2024-02-19T08:29:41.946Z,23.6
2024-02-19T08:35:00.312Z,23.6
2024-02-19T08:40:19.161Z,23.6
2024-02-19T08:45:38.102Z,23.6
2024-02-19T08:50:56.455Z,23.6
2024-02-19T08:56:14.767Z,23.6
2024-02-19T09:01:33.237Z,23.6
2024-02-19T09:06:54.879Z,23.6
2024-02-19T09:12:13.472Z,23.6
2024-02-19T09:17:31.596Z,23.6
2024-02-19T09:22:49.782Z,23.6
2024-02-19T09:28:07.767Z,23.6
2024-02-19T09:33:26.223Z,23.6
2024-02-19T09:38:44.473Z,23.6
2024-02-19T09:44:02.813Z,23.6
2024-02-19T09:49:20.916Z,23.6
2024-02-19T09:54:39.511Z,23.6
2024-02-19T09:59:57.977Z,23.6
2024-02-19T10:05:16.724Z,23.6
2024-02-19T10:10:35.306Z,23.6
2024-02-19T10:15:53.912Z,23.6
2024-02-19T10:21:12.089Z,23.6
2024-02-19T10:26:30.233Z,23.6
2024-02-19T10:31:48.357Z,23.6
2024-02-19T10:37:06.549Z,23.6
2024-02-19T10:42:25.009Z,23.6
2024-02-19T10:47:43.291Z,23.6
2024-02-19T10:53:01.583Z,23.6
2024-02-19T10:58:19.978Z,23.6
2024-02-19T11:03:38.573Z,23.6
2024-02-19T11:08:56.763Z,23.6
2024-02-19T11:14:15.099Z,23.6
2024-02-19T11:19:33.571Z,23.6
2024-02-19T11:24:51.755Z,23.6
2024-02-19T11:30:10.531Z,23.6
2024-02-19T11:35:29.083Z,23.6
2024-02-19T11:40:51.604Z,23.6
2024-02-19T11:46:09.783Z,23.6
2024-02-19T11:51:27.948Z,23.6
2024-02-19T11:56:46.676Z,23.6
2024-02-19T12:02:05.413Z,23.6
2024-02-19T12:07:25.984Z,23.6
2024-02-19T12:12:44.812Z,23.6
2024-02-19T12:18:03.422Z,23.6
2024-02-19T12:23:21.813Z,23.6
2024-02-19T12:28:39.740Z,23.6
2024-02-19T12:33:58.391Z,23.6
2024-02-19T12:39:16.996Z,23.5
2024-02-19T12:44:34.948Z,23.5
2024-02-19T12:49:53.503Z,23.5
2024-02-19T12:55:15.961Z,23.5
2024-02-19T13:00:37.882Z,23.5
2024-02-19T13:05:56.527Z,23.5
2024-02-19T13:11:15.160Z,23.5
2024-02-19T13:16:33.429Z,23.5
2024-02-19T13:21:51.752Z,23.5
2024-02-19T13:27:10.347Z,23.5
2024-02-19T13:32:28.523Z,23.5
2024-02-19T13:37:46.866Z,23.5
2024-02-19T13:43:06.216Z,23.5
2024-02-19T13:48:24.741Z,23.5
2024-02-19T13:53:43.219Z,23.5
2024-02-19T13:59:01.558Z,23.5
2024-02-19T14:04:19.963Z,23.5
2024-02-19T14:09:38.766Z,23.5
2024-02-19T14:14:56.977Z,23.4
2024-02-19T14:20:15.984Z,23.4
2024-02-19T14:25:35.173Z,23.4
2024-02-19T14:30:56.719Z,22.9
2024-02-19T14:36:15.138Z,21.6
2024-02-19T14:41:33.323Z,21
2024-02-19T14:47:02.481Z,21.5
2024-02-19T14:52:26.120Z,21.9
2024-02-19T14:57:44.924Z,22
2024-02-19T15:03:03.366Z,22.1
2024-02-19T15:08:22.353Z,22.2
2024-02-19T15:13:40.940Z,22.2
2024-02-19T15:18:59.958Z,22.3
2024-02-19T15:24:18.491Z,22.3
2024-02-19T15:29:36.420Z,22.4
2024-02-19T15:34:54.781Z,22.4
2024-02-19T15:40:13.457Z,22.5
2024-02-19T15:45:32.017Z,22.5
2024-02-19T15:50:50.352Z,22.5
2024-02-19T15:56:08.568Z,22.6
2024-02-19T16:01:27.082Z,22.6
2024-02-19T16:06:47.198Z,22.6
2024-02-19T16:12:05.732Z,22.7
2024-02-19T16:17:24.094Z,22.7
2024-02-19T16:22:42.501Z,22.7
2024-02-19T16:28:00.794Z,22.7
2024-02-19T16:33:19.173Z,22.7
2024-02-19T16:38:37.360Z,22.7
2024-02-19T16:43:55.701Z,22.7
2024-02-19T16:49:14.649Z,22.7
2024-02-19T16:54:33.472Z,22.8
2024-02-19T16:59:52.039Z,22.8
2024-02-19T17:05:11.085Z,22.8
2024-02-19T17:10:30.077Z,22.8
2024-02-19T17:15:48.786Z,22.8
2024-02-19T17:21:07.102Z,22.8
2024-02-19T17:26:25.720Z,22.8
2024-02-19T17:31:47.909Z,22.8
2024-02-19T17:37:08.794Z,22.8
2024-02-19T17:42:27.482Z,22.8
2024-02-19T17:47:45.753Z,22.8
2024-02-19T17:53:04.119Z,22.8
2024-02-19T17:58:22.741Z,22.8
2024-02-19T18:03:41.544Z,22.8
2024-02-19T18:09:00.182Z,22.8
2024-02-19T18:14:18.301Z,22.8
2024-02-19T18:19:36.662Z,22.8
2024-02-19T18:24:39.719Z,22.9
2024-02-19T18:29:42.224Z,22.9
2024-02-19T18:35:00.605Z,22.9
2024-02-19T18:40:21.691Z,22.9
2024-02-19T18:45:39.908Z,22.9
2024-02-19T18:50:58.031Z,22.9
2024-02-19T18:56:16.196Z,22.9
2024-02-19T19:01:35.005Z,22.9
2024-02-19T19:06:53.466Z,22.9
2024-02-19T19:12:11.832Z,22.9
2024-02-19T19:17:30.433Z,23
2024-02-19T19:22:48.988Z,23
2024-02-19T19:28:07.549Z,23
2024-02-19T19:33:26.629Z,23
2024-02-19T19:38:44.869Z,23
2024-02-19T19:44:02.849Z,23
2024-02-19T19:49:21.298Z,23
2024-02-19T19:54:40.201Z,23
2024-02-19T19:59:58.582Z,23
2024-02-19T20:05:17.520Z,23
2024-02-19T20:10:36.070Z,23
2024-02-19T20:15:54.917Z,23
2024-02-19T20:21:13.194Z,23
2024-02-19T20:26:31.519Z,23
2024-02-19T20:31:49.494Z,23
2024-02-19T20:37:07.679Z,23.1
2024-02-19T20:42:26.026Z,23.1
2024-02-19T20:47:45.594Z,23.1
2024-02-19T20:53:03.693Z,23.1
2024-02-19T20:58:22.295Z,23.1
2024-02-19T21:03:49.975Z,23.1
2024-02-19T21:09:08.472Z,23.1
2024-02-19T21:14:26.638Z,23.1
2024-02-19T21:19:44.970Z,23.1
2024-02-19T21:25:03.978Z,23.1
2024-02-19T21:30:22.475Z,23.2
2024-02-19T21:35:40.823Z,23.1
2024-02-19T21:40:59.156Z,23.2
2024-02-19T21:46:17.312Z,23.2
2024-02-19T21:51:35.695Z,23.2
2024-02-19T21:56:53.876Z,23.2
2024-02-19T22:02:12.440Z,23.1
2024-02-19T22:07:30.787Z,23.2
2024-02-19T22:12:49.145Z,23.2
2024-02-19T22:18:07.607Z,23.2
2024-02-19T22:23:26.249Z,23.2
2024-02-19T22:28:44.762Z,23.2
2024-02-19T22:34:03.410Z,23.2
2024-02-19T22:39:21.953Z,23.2
2024-02-19T22:44:40.078Z,23.2
2024-02-19T22:49:58.400Z,23.2
2024-02-19T22:55:16.483Z,23.2
2024-02-19T23:00:34.903Z,23.2
2024-02-19T23:05:52.976Z,23.2
2024-02-19T23:11:11.461Z,23.2
2024-02-19T23:16:29.954Z,23.2
2024-02-19T23:21:48.368Z,23.2
2024-02-19T23:27:06.619Z,23.2
2024-02-19T23:32:24.788Z,23.2
2024-02-19T23:37:42.796Z,23.2
2024-02-19T23:43:01.379Z,23.2
2024-02-19T23:48:20.006Z,23.2
2024-02-19T23:53:38.398Z,23.2
2024-02-19T23:58:56.719Z,23.2
